Central Oregon RPC :: BOISE, id B

liberation: 2021-10-02  07:15     latitude: 43.572607     longitude: -116.189240 48 birds
# LOFT PRING MILES ARRIVAL SPEED ToWin
1 RUETER FAMILY LOFT AU21-CORP-824 251.04 2021-10-02 12:31:48.933 1394.600 00:00:00
2 RUETER FAMILY LOFT AU21-CORP-815 251.04 2021-10-02 12:32:33.494 1391.338 00:00:45
3 RUETER FAMILY LOFT AU21-CORP-828 251.04 2021-10-02 12:32:44.714 1390.519 00:00:56
4 RUETER FAMILY LOFT AU21-CORP-940 251.04 2021-10-02 12:36:36.326 1373.829 00:04:47
5 LUCAS CRAMER AU21-CORP-464 254.18 2021-10-02 12:59:41.447 1297.847 00:23:55
6 LUCAS CRAMER AU21-CORP-465 254.18 2021-10-02 12:59:46.302 1297.543 00:24:00
7 RUETER FAMILY LOFT AU21-CORP-915 251.04 2021-10-02 12:58:50.288 1284.997 00:27:01
8 RUETER FAMILY LOFT AU21-CORP-891 251.04 2021-10-02 12:58:50.642 1284.975 00:27:02
9 RUETER FAMILY LOFT AU21-CORP-817 251.04 2021-10-02 12:58:59.062 1284.450 00:27:10
10 RUETER FAMILY LOFT AU21-CORP-919 251.04 2021-10-02 12:59:41.437 1281.819 00:27:53
11 RUETER FAMILY LOFT AU21-CORP-860 251.04 2021-10-02 12:59:44.982 1281.599 00:27:56
12 RUETER FAMILY LOFT AU21-CORP-822 251.04 2021-10-02 13:01:39.646 1274.534 00:29:51
13 RUETER FAMILY LOFT AU21-CORP-920 251.04 2021-10-02 13:01:54.084 1273.650 00:30:05
14 whistling wings AU21-CORP-0254 256.37 2021-10-02 13:17:00.428 1246.415 00:38:28
15 whistling wings AU21-CORP-0928 256.37 2021-10-02 13:17:04.618 1246.174 00:38:32
16 RUETER FAMILY LOFT AU21-CORP-884 251.04 2021-10-02 13:23:45.629 1198.151 00:51:57
17 RUETER FAMILY LOFT AU21-CORP-861 251.04 2021-10-02 13:23:54.937 1197.648 00:52:06
18 RUETER FAMILY LOFT AU21-CORP-850 251.04 2021-10-02 13:26:53.186 1188.080 00:55:04
19 RUETER FAMILY LOFT AU21-CORP-839 251.04 2021-10-02 13:29:48.616 1178.812 00:58:00
20 whistling wings AU21-CORP-0939 256.37 2021-10-02 13:43:43.562 1160.743 01:05:11
21 whistling wings AU21-CORP-0946 256.37 2021-10-02 13:43:45.995 1160.622 01:05:14
22 whistling wings AU21-CORP-0265 256.37 2021-10-02 13:43:57.729 1160.038 01:05:25
23 LUCAS CRAMER AU21-CORP-461 254.18 2021-10-02 13:46:49.889 1141.705 01:11:03
24 whistling wings AU21-CORP-0938 256.37 2021-10-02 13:50:57.617 1139.536 01:12:25
25 whistling wings AU21-CORP-1101 256.37 2021-10-02 14:00:35.545 1112.474 01:22:03
26 whistling wings AU21-CORP-0767 256.37 2021-10-02 14:00:37.421 1112.388 01:22:05
27 RUETER FAMILY LOFT AU21-CORP-892 251.04 2021-10-02 13:54:55.400 1104.789 01:23:06
28 RUETER FAMILY LOFT AU21-CORP-881 251.04 2021-10-02 13:55:04.399 1104.375 01:23:15
29 RUETER FAMILY LOFT AU21-CORP-812 251.04 2021-10-02 13:55:06.614 1104.273 01:23:18
30 RUETER FAMILY LOFT AU21-CORP-836 251.04 2021-10-02 13:56:36.037 1100.175 01:24:47
31 RUETER FAMILY LOFT AU21-CORP-895 251.04 2021-10-02 13:56:49.729 1099.550 01:25:01
32 whistling wings AU21-CORP-0941 256.37 2021-10-02 14:07:59.006 1092.564 01:29:27
33 RUETER FAMILY LOFT AU21-CORP-887 251.04 2021-10-02 14:00:20.918 1090.002 01:28:32
34 whistling wings AU21-CORP-1102 256.37 2021-10-02 14:38:11.169 1018.107 01:59:39
35 RUETER FAMILY LOFT AU21-CORP-949 251.04 2021-10-02 15:56:07.430 847.842 03:24:19
36 RUETER FAMILY LOFT AU21-CORP-942 251.04 2021-10-02 15:56:12.272 847.711 03:24:23
37 LUCAS CRAMER AU21-CORP-444 254.18 2021-10-02 16:06:58.350 840.938 03:31:12
38 LUCAS CRAMER AU21-CORP-408 254.18 2021-10-02 16:07:03.301 840.808 03:31:17
39 RUETER FAMILY LOFT AU21-CORP-888 251.04 2021-10-02 16:17:35.005 814.310 03:45:46
40 LUCAS CRAMER AU21-CORP-453 254.18 2021-10-02 16:57:01.739 768.615 04:21:15
41 RUETER FAMILY LOFT AU21-CORP-868 251.04 2021-10-02 17:03:31.363 750.746 04:31:42
42 RUETER FAMILY LOFT AU21-CORP-809 251.04 2021-10-02 17:11:21.662 740.878 04:39:33
43 whistling wings AU21-CORP-0781 256.37 2021-10-02 18:36:59.790 661.603 05:58:27
LUCAS CRAMER AU21-CORP-435 0 0000-00-00 00:00:00.000 0.000 00:00:00
RUETER FAMILY LOFT AU21-CORP-813 0 0000-00-00 00:00:00.000 0.000 00:00:00
RUETER FAMILY LOFT AU21-CORP-896 0 0000-00-00 00:00:00.000 0.000 00:00:00
RUETER FAMILY LOFT AU21-CORP-966 0 0000-00-00 00:00:00.000 0.000 00:00:00
whistling wings AU21-CORP-0253 0 0000-00-00 00:00:00.000 0.000 00:00:00